Orsola Bottiglieri — ICQN — position and weather

sailwx.info

Track history (hours):
 
Tides and Currents Weather Stations Pressure Air Temp Water Temp Dewpoint Dewpoint Depression Visibility Wind Speed Wind Dir Waves Ship Positions

Orsola Bottiglieri

Last reported at 2015-Jun-20 00:33 UTC. Time now 2015-Jul-06 07:09 UTC.
Position N 35°05' E 119°50'.
Warning: this ship's position is 16 days out of date.

Length 292 m; draft 8.8 m.

Type: Cargo ship. MMSI: 247304400.

Date/timePositionNaut miles runAvg speedWind from/ knotsBaromVisibWave heightAir tempDewpointWater temp
2015-Jun-20 00:33N 35°05' E 119°50'1110.7
2015-Jun-19 23:32N 35°03' E 119°37'8 8.6
2015-Jun-19 22:33N 35°03' E 119°26'4 3.4
2015-Jun-19 21:22N 35°05' E 119°22'0 0.0
2015-Jun-19 20:22N 35°05' E 119°22'0 0.0
2015-Jun-19 19:16N 35°05' E 119°22'0 0.0
2015-Jun-19 18:22N 35°05' E 119°22'0 0.0
2015-Jun-19 17:22N 35°05' E 119°22'0 0.0
2015-Jun-19 16:28N 35°05' E 119°22'0 0.0
2015-Jun-19 15:16N 35°05' E 119°22'0 0.0
2015-Jun-19 14:28N 35°05' E 119°22'0 0.0
2015-Jun-19 13:16N 35°05' E 119°22'0 0.0
2015-Jun-19 12:16N 35°05' E 119°22'0 0.0
2015-Jun-19 11:22N 35°05' E 119°22'0 0.0
2015-Jun-19 10:28N 35°05' E 119°22'0 0.0
2015-Jun-19 09:16N 35°05' E 119°22'0 0.0
2015-Jun-19 08:16N 35°05' E 119°22'0 0.0
2015-Jun-19 07:16N 35°05' E 119°22'0 0.0
2015-Jun-19 06:04N 35°05' E 119°22'0 0.0
2015-Jun-19 04:22N 35°05' E 119°22'0 0.0
2015-Jun-19 03:28N 35°05' E 119°22'0 0.0
2015-Jun-19 01:10N 35°05' E 119°22'0 0.0
2015-Jun-19 00:10N 35°05' E 119°22'0 0.0
2015-Jun-18 23:22N 35°05' E 119°22'0 0.0
2015-Jun-18 22:28N 35°05' E 119°22'0 0.0
2015-Jun-18 21:22N 35°05' E 119°22'0 0.0
2015-Jun-18 20:10N 35°05' E 119°22'0 0.0
2015-Jun-18 19:28N 35°05' E 119°22'0 0.0
2015-Jun-18 17:22N 35°05' E 119°22'0 0.0
2015-Jun-18 16:28N 35°05' E 119°22'0 0.0
2015-Jun-18 11:10N 35°05' E 119°22'0 0.0
2015-Jun-18 09:16N 35°05' E 119°22'0 0.0
2015-Jun-18 03:22N 35°05' E 119°22'0 0.0
2015-Jun-18 02:28N 35°05' E 119°22'0 0.0
2015-Jun-18 00:22N 35°05' E 119°22'0 0.5
2015-Jun-17 23:33N 35°05' E 119°22'6 6.3
2015-Jun-17 22:33N 35°03' E 119°30'8 8.0
2015-Jun-17 21:33N 35°03' E 119°40'6 5.6
2015-Jun-17 20:32N 35°04' E 119°46'9 8.4
2015-Jun-17 19:30N 35°06' E 119°57'1010.3
2015-Jun-17 18:33N 35°08' E 120°08'1211.9
2015-Jun-17 17:33N 35°09' E 120°23'1212.2
2015-Jun-17 16:33N 35°08' E 120°38'  
2015-Jun-14 17:33N 22°41' E 119°54'  
Track history (hours):
 
Tides and Currents Weather Stations Pressure Air Temp Water Temp Dewpoint Dewpoint Depression Visibility Wind Speed Wind Dir Waves Ship Positions

Orsola Bottiglieri

Last reported at 2015-Jun-20 00:33 UTC. Time now 2015-Jul-06 07:09 UTC.
Position N 35°05' E 119°50'.
Warning: this ship's position is 16 days out of date.

Length 292 m; draft 8.8 m.

Type: Cargo ship. MMSI: 247304400.

Date/timePositionNaut miles runAvg speedWind from/ knotsBaromVisibWave heightAir tempDewpointWater temp
2015-Jun-20 00:33N 35°05' E 119°50'1110.7
2015-Jun-19 23:32N 35°03' E 119°37'8 8.6
2015-Jun-19 22:33N 35°03' E 119°26'4 3.4
2015-Jun-19 21:22N 35°05' E 119°22'0 0.0
2015-Jun-19 20:22N 35°05' E 119°22'0 0.0
2015-Jun-19 19:16N 35°05' E 119°22'0 0.0
2015-Jun-19 18:22N 35°05' E 119°22'0 0.0
2015-Jun-19 17:22N 35°05' E 119°22'0 0.0
2015-Jun-19 16:28N 35°05' E 119°22'0 0.0
2015-Jun-19 15:16N 35°05' E 119°22'0 0.0
2015-Jun-19 14:28N 35°05' E 119°22'0 0.0
2015-Jun-19 13:16N 35°05' E 119°22'0 0.0
2015-Jun-19 12:16N 35°05' E 119°22'0 0.0
2015-Jun-19 11:22N 35°05' E 119°22'0 0.0
2015-Jun-19 10:28N 35°05' E 119°22'0 0.0
2015-Jun-19 09:16N 35°05' E 119°22'0 0.0
2015-Jun-19 08:16N 35°05' E 119°22'0 0.0
2015-Jun-19 07:16N 35°05' E 119°22'0 0.0
2015-Jun-19 06:04N 35°05' E 119°22'0 0.0
2015-Jun-19 04:22N 35°05' E 119°22'0 0.0
2015-Jun-19 03:28N 35°05' E 119°22'0 0.0
2015-Jun-19 01:10N 35°05' E 119°22'0 0.0
2015-Jun-19 00:10N 35°05' E 119°22'0 0.0
2015-Jun-18 23:22N 35°05' E 119°22'0 0.0
2015-Jun-18 22:28N 35°05' E 119°22'0 0.0
2015-Jun-18 21:22N 35°05' E 119°22'0 0.0
2015-Jun-18 20:10N 35°05' E 119°22'0 0.0
2015-Jun-18 19:28N 35°05' E 119°22'0 0.0
2015-Jun-18 17:22N 35°05' E 119°22'0 0.0
2015-Jun-18 16:28N 35°05' E 119°22'0 0.0
2015-Jun-18 11:10N 35°05' E 119°22'0 0.0
2015-Jun-18 09:16N 35°05' E 119°22'0 0.0
2015-Jun-18 03:22N 35°05' E 119°22'0 0.0
2015-Jun-18 02:28N 35°05' E 119°22'0 0.0
2015-Jun-18 00:22N 35°05' E 119°22'0 0.5
2015-Jun-17 23:33N 35°05' E 119°22'6 6.3
2015-Jun-17 22:33N 35°03' E 119°30'8 8.0
2015-Jun-17 21:33N 35°03' E 119°40'6 5.6
2015-Jun-17 20:32N 35°04' E 119°46'9 8.4
2015-Jun-17 19:30N 35°06' E 119°57'1010.3
2015-Jun-17 18:33N 35°08' E 120°08'1211.9
2015-Jun-17 17:33N 35°09' E 120°23'1212.2
2015-Jun-17 16:33N 35°08' E 120°38'  
2015-Jun-14 17:33N 22°41' E 119°54'  

Dump ship's entire track history